createdAt,value
2017-08-29T00:00:08.854Z,994.75
2017-08-29T00:01:08.893Z,994.76
2017-08-29T00:02:07.621Z,994.75
2017-08-29T00:03:07.653Z,994.79
2017-08-29T00:04:07.685Z,994.75
2017-08-29T00:05:10.024Z,994.73
2017-08-29T00:06:07.658Z,994.72
2017-08-29T00:07:08.111Z,994.75
2017-08-29T00:08:08.488Z,994.78
2017-08-29T00:09:08.444Z,994.77
2017-08-29T00:10:08.587Z,994.78
2017-08-29T00:11:08.539Z,994.72
2017-08-29T00:12:08.476Z,994.80
2017-08-29T00:13:08.505Z,994.74
2017-08-29T00:14:08.543Z,994.77
2017-08-29T00:15:08.178Z,994.66
2017-08-29T00:16:07.610Z,994.71
2017-08-29T00:17:07.649Z,994.68
2017-08-29T00:18:07.733Z,994.67
2017-08-29T00:19:07.758Z,994.72
2017-08-29T00:20:07.706Z,994.68
2017-08-29T00:21:07.731Z,994.67
2017-08-29T00:22:08.175Z,994.64
2017-08-29T00:23:08.110Z,994.66
2017-08-29T00:24:08.493Z,994.64
2017-08-29T00:25:08.554Z,994.61
2017-08-29T00:26:08.483Z,994.56
2017-08-29T00:27:08.514Z,994.55
2017-08-29T00:28:08.576Z,994.54
2017-08-29T00:29:08.506Z,994.56
2017-08-29T00:30:08.539Z,994.48
2017-08-29T00:31:08.163Z,994.50
2017-08-29T00:32:08.107Z,994.57
2017-08-29T00:33:08.161Z,994.48
2017-08-29T00:34:07.691Z,994.56
2017-08-29T00:35:07.725Z,994.50
2017-08-29T00:36:07.664Z,994.50
2017-08-29T00:37:08.189Z,994.54
2017-08-29T00:38:08.113Z,994.51
2017-08-29T00:39:08.139Z,994.54
2017-08-29T00:40:08.167Z,994.47
2017-08-29T00:41:08.511Z,994.47
2017-08-29T00:42:08.743Z,994.43
2017-08-29T00:43:08.592Z,994.49
2017-08-29T00:44:08.523Z,994.45
2017-08-29T00:45:09.256Z,994.43
2017-08-29T00:46:07.781Z,994.43
2017-08-29T00:47:08.621Z,994.45
2017-08-29T00:48:08.243Z,994.48
2017-08-29T00:49:08.179Z,994.44
2017-08-29T00:50:08.230Z,994.48
2017-08-29T00:51:07.754Z,994.49
2017-08-29T00:52:07.743Z,994.49
2017-08-29T00:53:07.788Z,994.43
2017-08-29T00:54:07.812Z,992.38
2017-08-29T00:55:07.853Z,994.40
2017-08-29T00:56:07.783Z,994.42
2017-08-29T00:57:08.318Z,994.38
2017-08-29T00:58:08.256Z,994.42
2017-08-29T00:59:08.590Z,994.37
2017-08-29T01:02:30.741Z,994.44
2017-08-29T01:02:31.346Z,994.42
2017-08-29T01:02:31.953Z,994.41
2017-08-29T01:03:07.755Z,994.35
2017-08-29T01:04:08.696Z,994.41
2017-08-29T01:08:22.731Z,994.38
2017-08-29T01:08:23.339Z,994.42
2017-08-29T01:08:24.052Z,994.36
2017-08-29T01:08:24.655Z,994.37
2017-08-29T01:09:07.860Z,994.38
2017-08-29T01:10:08.298Z,994.41
2017-08-29T01:15:09.184Z,994.41
2017-08-29T01:15:09.793Z,994.36
2017-08-29T01:15:10.402Z,994.34
2017-08-29T01:15:11.008Z,994.34
2017-08-29T01:15:11.616Z,994.29
2017-08-29T01:16:08.047Z,994.30
2017-08-29T01:20:03.590Z,994.34
2017-08-29T01:20:04.199Z,994.28
2017-08-29T01:20:04.908Z,994.24
2017-08-29T01:20:07.923Z,994.28
2017-08-29T01:21:08.656Z,994.24
2017-08-29T01:22:08.291Z,994.26
2017-08-29T01:26:04.178Z,994.22
2017-08-29T01:26:04.787Z,994.22
2017-08-29T01:26:05.393Z,994.28
2017-08-29T01:26:07.808Z,994.30
2017-08-29T01:27:08.240Z,994.25
2017-08-29T01:28:08.270Z,994.27
2017-08-29T01:32:26.347Z,994.18
2017-08-29T01:32:26.959Z,994.17
2017-08-29T01:32:27.563Z,994.23
2017-08-29T01:32:28.170Z,994.16
2017-08-29T01:33:07.896Z,994.18
2017-08-29T01:38:15.756Z,994.18
2017-08-29T01:38:16.369Z,994.17
2017-08-29T01:38:16.976Z,994.14
2017-08-29T01:38:17.685Z,994.11
2017-08-29T01:38:18.291Z,994.18
2017-08-29T01:39:07.898Z,994.16
2017-08-29T01:40:08.757Z,994.17
2017-08-29T01:45:05.473Z,994.17
2017-08-29T01:45:06.082Z,994.13
2017-08-29T01:45:06.691Z,994.15
2017-08-29T01:45:07.303Z,994.11
2017-08-29T01:45:08.115Z,994.16
2017-08-29T01:46:08.451Z,994.10
2017-08-29T01:51:06.878Z,994.14
2017-08-29T01:51:07.483Z,994.14
2017-08-29T01:51:08.090Z,994.22
2017-08-29T01:51:08.697Z,994.12
2017-08-29T01:51:09.404Z,994.16
2017-08-29T01:52:08.738Z,994.15
2017-08-29T01:56:21.679Z,994.11
2017-08-29T01:56:22.281Z,994.17
2017-08-29T01:56:22.889Z,994.22
2017-08-29T01:56:23.500Z,994.19
2017-08-29T01:57:07.895Z,994.17
2017-08-29T01:58:08.328Z,994.13
2017-08-29T02:00:47.313Z,994.16
2017-08-29T02:00:47.927Z,994.18
2017-08-29T02:01:07.973Z,994.18
2017-08-29T02:02:08.412Z,994.24
2017-08-29T02:03:08.443Z,994.22
2017-08-29T02:04:08.469Z,994.19
2017-08-29T02:05:08.436Z,994.13
2017-08-29T02:06:08.784Z,994.13
2017-08-29T02:07:08.728Z,994.13
2017-08-29T02:08:08.774Z,994.14
2017-08-29T02:09:08.814Z,994.20
2017-08-29T02:10:08.949Z,994.14
2017-08-29T02:11:08.817Z,994.09
2017-08-29T02:12:08.951Z,994.17
2017-08-29T02:13:08.485Z,994.09
2017-08-29T02:14:08.447Z,994.11
2017-08-29T02:15:07.978Z,994.09
2017-08-29T02:16:08.028Z,994.09
2017-08-29T02:17:09.183Z,994.16
2017-08-29T02:18:08.005Z,994.08
2017-08-29T02:19:08.137Z,994.12
2017-08-29T02:20:08.025Z,994.17
2017-08-29T02:21:08.459Z,994.15
2017-08-29T02:22:08.490Z,994.15
2017-08-29T02:23:08.623Z,994.12
2017-08-29T02:24:08.866Z,994.15
2017-08-29T02:25:08.810Z,994.11
2017-08-29T02:26:08.960Z,994.15
2017-08-29T02:27:08.933Z,994.10
2017-08-29T02:28:08.873Z,994.19
2017-08-29T02:29:08.912Z,994.12
2017-08-29T02:30:08.452Z,994.10
2017-08-29T02:31:08.491Z,994.08
2017-08-29T02:32:09.139Z,994.18
2017-08-29T02:33:08.062Z,994.10
2017-08-29T02:34:09.520Z,994.12
2017-08-29T02:35:08.856Z,994.08
2017-08-29T02:36:08.023Z,994.10
2017-08-29T02:37:08.561Z,994.11
2017-08-29T02:38:08.500Z,994.08
2017-08-29T02:39:08.535Z,994.10
2017-08-29T02:40:08.676Z,994.06
2017-08-29T02:41:08.610Z,994.04
2017-08-29T02:42:08.951Z,994.01
2017-08-29T02:43:09.008Z,994.09
2017-08-29T02:44:09.044Z,993.98
2017-08-29T02:45:08.999Z,994.03
2017-08-29T02:46:09.028Z,994.05
2017-08-29T02:47:09.169Z,994.14
2017-08-29T02:48:08.508Z,994.06
2017-08-29T02:49:08.642Z,994.08
2017-08-29T02:50:08.086Z,994.04
2017-08-29T02:51:08.635Z,994.07
2017-08-29T02:52:08.165Z,993.98
2017-08-29T02:53:08.099Z,994.06
2017-08-29T02:54:08.527Z,994.02
2017-08-29T02:55:08.665Z,994.00
2017-08-29T02:56:08.594Z,993.98
2017-08-29T02:57:08.827Z,993.99
2017-08-29T02:58:08.969Z,994.01
2017-08-29T02:59:09.016Z,994.05
2017-08-29T03:00:08.979Z,994.05
2017-08-29T03:01:08.924Z,994.05
2017-08-29T03:02:08.969Z,993.98
2017-08-29T03:03:08.504Z,993.97
2017-08-29T03:04:08.537Z,994.04
2017-08-29T03:05:08.598Z,993.96
2017-08-29T03:06:08.537Z,994.09
2017-08-29T03:07:08.686Z,993.99
2017-08-29T03:08:08.228Z,993.94
2017-08-29T03:09:08.167Z,993.97
2017-08-29T03:10:08.910Z,993.96
2017-08-29T03:11:08.151Z,993.89
2017-08-29T03:12:08.580Z,993.91
2017-08-29T03:13:08.609Z,993.92
2017-08-29T03:14:08.646Z,993.92
2017-08-29T03:15:08.980Z,993.97
2017-08-29T03:16:09.023Z,993.94
2017-08-29T03:17:08.969Z,993.96
2017-08-29T03:18:09.008Z,993.96
2017-08-29T03:19:09.058Z,993.95
2017-08-29T03:20:08.592Z,993.95
2017-08-29T03:21:08.649Z,993.94
2017-08-29T03:22:09.286Z,993.97
2017-08-29T03:23:08.620Z,993.97
2017-08-29T03:24:08.247Z,993.93
2017-08-29T03:25:08.256Z,993.94
2017-08-29T03:26:08.195Z,993.90
2017-08-29T03:27:08.335Z,993.98
2017-08-29T03:28:08.179Z,993.91
2017-08-29T03:29:08.621Z,993.91
2017-08-29T03:30:08.659Z,993.95
2017-08-29T03:31:08.790Z,994.02
2017-08-29T03:32:09.130Z,993.95
2017-08-29T03:33:09.072Z,993.97
2017-08-29T03:34:09.020Z,993.94
2017-08-29T03:35:09.062Z,993.87
2017-08-29T03:36:09.116Z,993.91
2017-08-29T03:37:09.183Z,993.94
2017-08-29T03:38:08.624Z,993.86
2017-08-29T03:39:08.662Z,993.93
2017-08-29T03:40:31.565Z,993.93
2017-08-29T03:42:09.500Z,993.92
2017-08-29T03:42:10.109Z,993.87
2017-08-29T03:42:10.716Z,993.86
2017-08-29T03:43:08.264Z,993.88
2017-08-29T03:44:08.305Z,993.88
2017-08-29T03:45:08.244Z,993.85
2017-08-29T03:46:09.491Z,993.82
2017-08-29T03:47:08.420Z,993.84
2017-08-29T03:48:08.756Z,993.86
2017-08-29T03:49:09.091Z,993.87
2017-08-29T03:50:09.142Z,993.91
2017-08-29T03:51:09.187Z,993.89
2017-08-29T03:52:09.218Z,993.86
2017-08-29T03:53:09.161Z,993.88
2017-08-29T03:54:09.250Z,993.85
2017-08-29T03:55:09.190Z,993.89
2017-08-29T03:56:08.829Z,993.90
2017-08-29T03:57:08.862Z,993.95
2017-08-29T03:58:08.293Z,993.95
2017-08-29T03:59:08.330Z,993.87
2017-08-29T04:00:08.369Z,993.88
2017-08-29T04:01:08.393Z,993.90
2017-08-29T04:02:08.529Z,993.86
2017-08-29T04:03:08.360Z,993.89
2017-08-29T04:04:08.794Z,993.85
2017-08-29T04:05:08.832Z,993.88
2017-08-29T04:06:09.175Z,993.87
2017-08-29T04:07:08.908Z,993.88
2017-08-29T04:08:09.276Z,993.90
2017-08-29T04:09:09.218Z,993.85
2017-08-29T04:10:09.262Z,993.83
2017-08-29T04:11:09.206Z,993.83
2017-08-29T04:12:08.936Z,993.88
2017-08-29T04:13:08.785Z,993.90
2017-08-29T04:14:08.324Z,993.85
2017-08-29T04:15:08.972Z,993.94
2017-08-29T04:16:08.912Z,993.84
2017-08-29T04:17:08.457Z,993.94
2017-08-29T04:18:08.400Z,993.87
2017-08-29T04:19:08.449Z,993.88
2017-08-29T04:20:08.496Z,993.83
2017-08-29T04:21:08.836Z,993.88
2017-08-29T04:22:08.967Z,993.86
2017-08-29T04:23:09.228Z,993.88
2017-08-29T04:24:09.267Z,993.86
2017-08-29T04:25:09.237Z,993.89
2017-08-29T04:26:09.280Z,993.93
2017-08-29T04:27:09.317Z,993.86
2017-08-29T04:28:09.258Z,993.94
2017-08-29T04:29:08.889Z,993.92
2017-08-29T04:30:09.462Z,993.91
2017-08-29T04:31:08.898Z,993.99
2017-08-29T04:32:09.035Z,993.96
2017-08-29T04:33:08.473Z,993.94
2017-08-29T04:34:08.515Z,991.91
2017-08-29T04:35:08.457Z,993.96
2017-08-29T04:36:08.404Z,993.97
2017-08-29T04:37:08.841Z,993.98
2017-08-29T04:38:08.880Z,993.94
2017-08-29T04:39:09.240Z,994.01
2017-08-29T04:40:09.323Z,993.90
2017-08-29T04:41:09.247Z,993.98
2017-08-29T04:42:09.300Z,993.99
2017-08-29T04:43:09.442Z,993.99
2017-08-29T04:44:09.295Z,994.04
2017-08-29T04:45:09.233Z,993.98
2017-08-29T04:46:09.301Z,993.98
2017-08-29T04:47:08.865Z,994.00
2017-08-29T04:48:08.916Z,993.99
2017-08-29T04:49:08.926Z,994.03
2017-08-29T04:50:09.004Z,994.03
2017-08-29T04:51:08.442Z,993.93
2017-08-29T04:52:08.588Z,994.00
2017-08-29T04:53:09.258Z,994.05
2017-08-29T04:54:08.696Z,993.88
2017-08-29T04:55:08.596Z,993.92
2017-08-29T04:56:08.628Z,993.94
2017-08-29T04:57:08.573Z,993.91
2017-08-29T04:58:09.224Z,993.89
2017-08-29T04:59:09.482Z,993.88
2017-08-29T05:00:09.357Z,993.83
2017-08-29T05:01:09.399Z,993.92
2017-08-29T05:02:09.461Z,993.86
2017-08-29T05:03:09.456Z,993.85
2017-08-29T05:04:09.405Z,993.86
2017-08-29T05:05:09.460Z,993.83
2017-08-29T05:06:09.017Z,993.79
2017-08-29T05:07:09.073Z,993.87
2017-08-29T05:08:09.037Z,993.85
2017-08-29T05:09:09.054Z,993.86
2017-08-29T05:10:08.567Z,993.87
2017-08-29T05:11:08.621Z,993.81
2017-08-29T05:12:08.545Z,993.79
2017-08-29T05:13:09.324Z,993.84
2017-08-29T05:14:08.655Z,993.87
2017-08-29T05:15:08.557Z,993.88
2017-08-29T05:16:09.425Z,993.83
2017-08-29T05:17:09.460Z,993.83
2017-08-29T05:18:09.530Z,993.82
2017-08-29T05:19:09.470Z,993.81
2017-08-29T05:20:09.451Z,993.86
2017-08-29T05:21:09.577Z,993.90
2017-08-29T05:22:09.019Z,993.85
2017-08-29T05:23:09.078Z,993.91
2017-08-29T05:24:09.086Z,993.84
2017-08-29T05:25:09.280Z,993.90
2017-08-29T05:26:08.646Z,993.93
2017-08-29T05:27:08.607Z,993.90
2017-08-29T05:28:08.762Z,993.87
2017-08-29T05:29:08.713Z,993.82
2017-08-29T05:30:08.672Z,993.89
2017-08-29T05:31:08.733Z,993.88
2017-08-29T05:32:08.695Z,993.90
2017-08-29T05:33:09.723Z,993.87
2017-08-29T05:34:09.499Z,993.85
2017-08-29T05:35:09.500Z,993.86
2017-08-29T05:36:09.481Z,993.79
2017-08-29T05:37:09.431Z,993.81
2017-08-29T05:38:09.572Z,993.84
2017-08-29T05:39:09.540Z,993.75
2017-08-29T05:40:09.232Z,993.74
2017-08-29T05:41:09.099Z,993.68
2017-08-29T05:42:09.116Z,993.70
2017-08-29T05:43:09.161Z,993.76
2017-08-29T05:44:08.740Z,993.71
2017-08-29T05:45:08.692Z,993.67
2017-08-29T05:46:10.378Z,993.78
2017-08-29T05:47:08.653Z,993.69
2017-08-29T05:48:08.823Z,993.79
2017-08-29T05:49:08.666Z,993.70
2017-08-29T05:50:09.525Z,993.66
2017-08-29T05:51:09.677Z,993.71
2017-08-29T05:52:12.048Z,993.71
2017-08-29T05:53:08.773Z,993.65
2017-08-29T05:54:09.543Z,993.67
2017-08-29T05:55:09.686Z,993.71
2017-08-29T05:56:09.543Z,993.72
2017-08-29T05:57:09.087Z,993.68
2017-08-29T05:58:09.135Z,993.68
2017-08-29T05:59:09.174Z,993.67
2017-08-29T06:00:09.246Z,993.65
2017-08-29T06:01:09.224Z,993.61
2017-08-29T06:02:20.931Z,993.60
2017-08-29T15:27:38.070Z,989.32
2017-08-29T15:28:09.952Z,989.34
2017-08-29T15:29:11.219Z,989.33
2017-08-29T15:30:10.812Z,989.40
2017-08-29T15:31:12.407Z,989.38
2017-08-29T15:32:10.848Z,989.29
2017-08-29T15:33:11.726Z,989.26
2017-08-29T15:34:10.396Z,989.32
2017-08-29T15:35:11.564Z,989.33
2017-08-29T15:36:10.424Z,989.29
2017-08-29T15:37:10.579Z,989.36
2017-08-29T15:38:10.480Z,989.34
2017-08-29T15:39:10.808Z,989.33
2017-08-29T15:40:10.423Z,989.33
2017-08-29T15:41:11.691Z,989.40
2017-08-29T15:42:11.444Z,989.44
2017-08-29T15:43:11.422Z,989.43
2017-08-29T15:44:11.211Z,989.42
2017-08-29T15:45:12.362Z,989.41
2017-08-29T15:46:27.644Z,989.45
2017-08-29T15:47:10.654Z,989.44
2017-08-29T15:48:10.843Z,989.50
2017-08-29T15:49:12.611Z,989.43
2017-08-29T15:50:10.906Z,989.45
2017-08-29T15:51:11.533Z,989.36
2017-08-29T15:52:10.499Z,989.43
2017-08-29T15:53:16.147Z,989.46
2017-08-29T15:54:10.504Z,989.41
2017-08-29T15:55:11.294Z,989.37
2017-08-29T15:56:11.267Z,989.36
2017-08-29T15:57:11.791Z,989.40
2017-08-29T15:58:11.392Z,989.42
2017-08-29T15:59:11.664Z,989.40
2017-08-29T16:00:11.453Z,989.38
2017-08-29T16:01:11.604Z,989.39
2017-08-29T16:02:11.314Z,989.42
2017-08-29T16:03:11.611Z,989.45
2017-08-29T16:04:10.857Z,989.45
2017-08-29T16:05:11.575Z,989.47
2017-08-29T16:06:10.895Z,989.38
2017-08-29T16:07:11.577Z,989.47
2017-08-29T16:08:10.991Z,989.45
2017-08-29T16:09:11.417Z,989.45
2017-08-29T16:10:10.477Z,989.50
2017-08-29T16:11:11.777Z,989.44
2017-08-29T16:12:10.505Z,989.42
2017-08-29T16:13:11.848Z,989.39
2017-08-29T16:14:10.474Z,989.47
2017-08-29T16:15:11.915Z,989.40
2017-08-29T16:16:11.383Z,989.44
2017-08-29T16:17:11.931Z,989.40
2017-08-29T16:18:11.499Z,989.36
2017-08-29T16:19:11.668Z,989.36
2017-08-29T16:20:11.390Z,989.30
2017-08-29T16:21:11.946Z,989.38
2017-08-29T16:22:10.873Z,989.31
2017-08-29T16:23:12.551Z,989.35
2017-08-29T16:24:11.116Z,989.38
2017-08-29T16:25:11.781Z,989.31
2017-08-29T16:26:10.520Z,989.33
2017-08-29T16:27:11.510Z,989.31
2017-08-29T16:28:11.239Z,989.36
2017-08-29T16:29:11.801Z,989.29
2017-08-29T16:30:10.526Z,989.33
2017-08-29T16:31:12.016Z,989.29
2017-08-29T16:32:11.386Z,989.34
2017-08-29T16:33:12.027Z,989.25
2017-08-29T16:34:11.632Z,989.26
2017-08-29T16:35:11.736Z,989.32
2017-08-29T16:36:11.590Z,989.30
2017-08-29T16:37:11.873Z,989.33
2017-08-29T16:38:11.475Z,989.30
2017-08-29T16:39:16.725Z,989.29
2017-08-29T16:40:11.093Z,989.35
2017-08-29T16:41:11.757Z,989.31
2017-08-29T16:42:11.129Z,989.34
2017-08-29T16:43:11.907Z,989.30
2017-08-29T16:44:10.573Z,989.35
2017-08-29T16:45:12.188Z,989.26
2017-08-29T16:46:10.638Z,989.37
2017-08-29T16:47:11.833Z,989.32
2017-08-29T16:48:10.791Z,989.36
2017-08-29T16:49:10.878Z,989.33
2017-08-29T16:50:10.678Z,989.39
2017-08-29T16:51:11.858Z,989.37
2017-08-29T16:52:11.488Z,989.31
2017-08-29T16:53:11.871Z,989.38
2017-08-29T16:54:11.115Z,989.30
2017-08-29T16:55:12.083Z,989.24
2017-08-29T16:56:11.014Z,989.28
2017-08-29T16:57:11.793Z,989.26
2017-08-29T16:58:11.145Z,989.36
2017-08-29T16:59:11.814Z,989.30
2017-08-29T17:00:11.416Z,989.29
2017-08-29T17:01:12.129Z,989.32
2017-08-29T17:02:10.698Z,989.30
2017-08-29T17:03:12.130Z,989.36
2017-08-29T17:04:10.658Z,989.33
2017-08-29T17:05:11.850Z,989.32
2017-08-29T17:06:11.525Z,989.33
2017-08-29T17:07:11.967Z,989.32
2017-08-29T17:08:11.583Z,989.30
2017-08-29T17:09:11.975Z,989.36
2017-08-29T17:10:11.535Z,989.27
2017-08-29T17:11:11.991Z,989.38
2017-08-29T17:12:11.640Z,989.25
2017-08-29T17:13:11.614Z,989.32
2017-08-29T17:14:11.131Z,989.34
2017-08-29T17:15:12.416Z,989.33
2017-08-29T17:16:10.676Z,989.27
2017-08-29T17:17:11.772Z,989.27
2017-08-29T17:18:10.808Z,989.35
2017-08-29T17:19:12.060Z,989.39
2017-08-29T17:20:10.768Z,989.32
2017-08-29T17:21:11.058Z,989.37
2017-08-29T17:22:10.688Z,989.39
2017-08-29T17:23:11.801Z,989.31
2017-08-29T17:24:11.525Z,989.26
2017-08-29T17:25:12.676Z,989.22
2017-08-29T17:26:11.570Z,989.22
2017-08-29T17:27:11.946Z,989.28
2017-08-29T17:28:11.147Z,989.34
2017-08-29T17:29:12.133Z,989.21
2017-08-29T17:30:11.969Z,989.29
2017-08-29T17:31:12.091Z,989.17
2017-08-29T17:32:10.699Z,989.22
2017-08-29T17:33:11.897Z,989.27
2017-08-29T17:34:10.889Z,989.28
2017-08-29T17:35:11.910Z,989.28
2017-08-29T17:36:10.767Z,989.25
2017-08-29T17:37:11.941Z,989.25
2017-08-29T17:38:11.556Z,989.33
2017-08-29T17:39:11.983Z,989.30
2017-08-29T17:40:11.681Z,989.32
2017-08-29T17:41:12.218Z,989.34
2017-08-29T17:42:11.598Z,989.34
2017-08-29T17:43:12.008Z,989.38
2017-08-29T17:44:11.266Z,989.38
2017-08-29T17:45:12.087Z,989.37
2017-08-29T17:46:10.733Z,989.35
2017-08-29T17:47:12.039Z,989.36
2017-08-29T17:48:10.833Z,989.37
2017-08-29T17:49:11.859Z,989.43
2017-08-29T17:50:10.909Z,989.34
2017-08-29T17:51:12.065Z,989.43
2017-08-29T17:52:10.782Z,989.38
2017-08-29T17:53:12.077Z,989.38
2017-08-29T17:54:11.609Z,989.36
2017-08-29T17:55:12.051Z,989.35
2017-08-29T17:56:11.620Z,989.40
2017-08-29T17:57:12.094Z,989.36
2017-08-29T17:58:11.676Z,989.43
2017-08-29T17:59:11.930Z,989.41
2017-08-29T18:00:11.635Z,989.38
2017-08-29T18:01:12.716Z,989.43
2017-08-29T18:02:11.322Z,989.38
2017-08-29T18:03:12.144Z,989.32
2017-08-29T18:04:11.477Z,989.35
2017-08-29T18:05:11.856Z,989.35
2017-08-29T18:06:10.808Z,989.35
2017-08-29T18:07:12.166Z,989.36
2017-08-29T18:08:10.819Z,989.36
2017-08-29T18:09:11.909Z,989.44
2017-08-29T18:10:10.882Z,989.42
2017-08-29T18:11:12.195Z,989.52
2017-08-29T18:12:10.991Z,989.45
2017-08-29T18:13:12.634Z,989.50
2017-08-29T18:14:11.743Z,989.47
2017-08-29T18:15:12.111Z,989.50
2017-08-29T18:16:11.692Z,989.45
2017-08-29T18:17:12.821Z,989.56
2017-08-29T18:18:11.310Z,989.54
2017-08-29T18:19:12.045Z,989.58
2017-08-29T18:20:11.312Z,989.59
2017-08-29T18:21:12.103Z,989.61
2017-08-29T18:22:10.857Z,989.57
2017-08-29T18:23:12.275Z,989.60
2017-08-29T18:24:11.086Z,989.71
2017-08-29T18:25:12.291Z,989.65
2017-08-29T18:26:11.019Z,989.62
2017-08-29T18:27:12.340Z,989.78
2017-08-29T18:28:10.877Z,989.73
2017-08-29T18:29:12.147Z,989.77
2017-08-29T18:30:11.684Z,989.76
2017-08-29T18:31:12.081Z,989.75
2017-08-29T18:32:11.753Z,989.82
2017-08-29T18:33:12.207Z,989.84
2017-08-29T18:34:11.885Z,989.78
2017-08-29T18:35:12.856Z,989.78
2017-08-29T18:36:11.436Z,989.78
2017-08-29T18:37:12.170Z,989.80
2017-08-29T18:38:10.918Z,989.75
2017-08-29T18:39:12.174Z,989.82
2017-08-29T18:40:10.885Z,989.80
2017-08-29T18:41:12.201Z,989.84
2017-08-29T18:42:11.876Z,989.85
2017-08-29T18:43:12.515Z,989.86
2017-08-29T18:44:10.931Z,989.77
2017-08-29T18:45:12.121Z,989.77
2017-08-29T18:46:12.259Z,989.85
2017-08-29T18:47:12.135Z,989.81
2017-08-29T18:48:11.739Z,989.88
2017-08-29T18:49:12.350Z,989.87
2017-08-29T18:50:11.815Z,989.84
2017-08-29T18:51:12.948Z,989.81
2017-08-29T18:52:11.379Z,989.92
2017-08-29T18:53:12.852Z,989.90
2017-08-29T18:54:10.937Z,989.91
2017-08-29T18:55:12.195Z,989.81
2017-08-29T18:56:10.973Z,989.90
2017-08-29T18:57:12.401Z,989.82
2017-08-29T18:58:10.978Z,989.84
2017-08-29T18:59:12.417Z,989.86
2017-08-29T19:00:10.992Z,989.83
2017-08-29T19:01:12.431Z,989.82
2017-08-29T19:02:11.828Z,989.84
2017-08-29T19:03:12.248Z,989.83
2017-08-29T19:04:12.370Z,989.85
2017-08-29T19:05:12.266Z,989.83
2017-08-29T19:06:12.028Z,989.85
2017-08-29T19:07:12.275Z,989.76
2017-08-29T19:08:11.564Z,989.88
2017-08-29T19:09:12.378Z,989.81
2017-08-29T19:10:11.008Z,989.78
2017-08-29T19:11:12.302Z,989.79
2017-08-29T19:12:11.625Z,989.91
2017-08-29T19:13:12.230Z,989.79
2017-08-29T19:14:11.020Z,989.85
2017-08-29T19:15:12.364Z,989.87
2017-08-29T19:16:11.192Z,989.88
2017-08-29T19:17:12.341Z,989.91
2017-08-29T19:18:11.081Z,989.94
2017-08-29T19:19:12.257Z,989.95
2017-08-29T19:20:11.863Z,989.97
2017-08-29T19:21:12.171Z,989.96
2017-08-29T19:22:15.648Z,989.99
2017-08-29T19:23:11.541Z,989.88
2017-08-29T19:24:12.289Z,990.00
2017-08-29T19:25:12.266Z,989.96
2017-08-29T19:26:11.537Z,989.96
2017-08-29T19:27:12.230Z,989.88
2017-08-29T19:28:11.174Z,989.91
2017-08-29T19:29:12.463Z,989.95
2017-08-29T19:30:11.157Z,989.95
2017-08-29T19:31:12.535Z,989.90
2017-08-29T19:32:11.096Z,989.92
2017-08-29T19:33:12.450Z,989.98
2017-08-29T19:34:20.744Z,989.91
2017-08-29T19:35:11.823Z,989.97
2017-08-29T19:36:12.142Z,990.05
2017-08-29T19:37:18.917Z,990.05
2017-08-29T19:38:11.595Z,989.92
2017-08-29T19:39:13.272Z,990.02
2017-08-29T19:40:11.354Z,989.91
2017-08-29T19:41:12.733Z,989.91
2017-08-29T19:42:12.107Z,989.98
2017-08-29T19:43:12.607Z,989.93
2017-08-29T19:44:12.278Z,989.88
2017-08-29T19:45:17.644Z,989.98
2017-08-29T19:46:11.146Z,989.99
2017-08-29T19:47:12.456Z,989.90
2017-08-29T19:48:11.211Z,990.01
2017-08-29T19:49:12.594Z,989.98
2017-08-29T19:50:11.219Z,990.08
2017-08-29T19:51:12.964Z,990.03
2017-08-29T19:52:11.683Z,989.99
2017-08-29T19:53:12.604Z,989.99
2017-08-29T19:54:11.274Z,990.04
2017-08-29T19:55:15.212Z,990.06
2017-08-29T19:56:11.208Z,990.08
2017-08-29T19:57:12.821Z,990.02
2017-08-29T19:58:11.581Z,990.04
2017-08-29T19:59:12.619Z,990.04
2017-08-29T20:00:12.574Z,990.06
2017-08-29T20:01:12.662Z,989.97
2017-08-29T20:02:11.302Z,989.97
2017-08-29T20:03:13.016Z,989.94
2017-08-29T20:04:11.276Z,989.95
2017-08-29T20:05:12.494Z,990.00
2017-08-29T20:06:17.165Z,990.04
2017-08-29T20:07:11.914Z,989.99
2017-08-29T20:08:12.320Z,989.99
2017-08-29T20:09:12.373Z,989.98
2017-08-29T20:10:12.242Z,990.08
2017-08-29T20:11:12.318Z,990.00
2017-08-29T20:12:12.149Z,989.98
2017-08-29T20:13:12.603Z,989.96
2017-08-29T20:14:11.563Z,990.05
2017-08-29T20:15:12.436Z,989.94
2017-08-29T20:16:11.195Z,989.95
2017-08-29T20:17:13.277Z,989.99
2017-08-29T20:18:11.233Z,989.96
2017-08-29T20:19:13.123Z,989.98
2017-08-29T20:20:11.214Z,989.98
2017-08-29T20:21:12.572Z,989.99
2017-08-29T20:22:11.296Z,990.04
2017-08-29T20:23:12.481Z,989.99
2017-08-29T20:24:11.256Z,990.04
2017-08-29T20:25:12.406Z,990.11
2017-08-29T20:26:12.005Z,990.08
2017-08-29T20:27:12.815Z,990.11
2017-08-29T20:28:12.633Z,990.00
2017-08-29T20:29:12.995Z,990.02
2017-08-29T20:30:11.640Z,989.92
2017-08-29T20:31:12.919Z,989.99
2017-08-29T20:32:12.068Z,990.02
2017-08-29T20:33:13.237Z,990.02
2017-08-29T20:34:11.272Z,990.05
2017-08-29T20:35:12.471Z,989.97
2017-08-29T20:36:11.207Z,990.02
2017-08-29T20:37:12.891Z,990.00
2017-08-29T20:38:11.308Z,989.93
2017-08-29T20:39:12.493Z,989.98
2017-08-29T20:40:11.308Z,989.99
2017-08-29T20:41:12.722Z,990.01
2017-08-29T20:42:12.101Z,989.96
2017-08-29T20:43:13.373Z,989.90
2017-08-29T20:44:11.314Z,989.98
2017-08-29T20:45:12.541Z,989.93
2017-08-29T20:46:11.781Z,989.90
2017-08-29T20:47:12.237Z,989.93
2017-08-29T20:48:11.805Z,989.95
2017-08-29T20:49:12.586Z,990.06
2017-08-29T20:50:11.783Z,989.98
2017-08-29T20:51:12.400Z,990.03
2017-08-29T20:52:11.460Z,989.96
2017-08-29T20:53:14.266Z,989.98
2017-08-29T20:54:11.315Z,990.01
2017-08-29T20:55:13.110Z,989.99
2017-08-29T20:56:11.359Z,989.98
2017-08-29T20:57:12.507Z,990.02
2017-08-29T20:58:12.113Z,989.97
2017-08-29T20:59:13.492Z,989.99
2017-08-29T21:00:11.456Z,990.01
2017-08-29T21:01:12.347Z,990.02
2017-08-29T21:02:12.407Z,990.00
2017-08-29T21:03:12.757Z,990.04
2017-08-29T21:04:11.890Z,990.12
2017-08-29T21:05:13.145Z,990.05
2017-08-29T21:06:11.882Z,990.04
2017-08-29T21:07:12.658Z,989.97
2017-08-29T21:08:11.393Z,990.02
2017-08-29T21:09:12.798Z,990.02
2017-08-29T21:10:11.384Z,990.01
2017-08-29T21:11:12.516Z,990.04
2017-08-29T21:12:11.357Z,990.03
2017-08-29T21:13:13.040Z,990.03
2017-08-29T21:14:11.738Z,989.95
2017-08-29T21:15:12.826Z,989.97
2017-08-29T21:16:11.443Z,989.98
2017-08-29T21:17:12.908Z,989.97
2017-08-29T21:18:12.186Z,989.95
2017-08-29T21:19:12.884Z,990.02
2017-08-29T21:20:11.976Z,989.96
2017-08-29T21:21:12.942Z,989.99
2017-08-29T21:22:12.104Z,989.92
2017-08-29T21:23:12.872Z,989.95
2017-08-29T21:24:11.406Z,990.01
2017-08-29T21:25:13.378Z,990.01
2017-08-29T21:26:11.492Z,990.02
2017-08-29T21:27:12.761Z,990.04
2017-08-29T21:28:11.415Z,990.02
2017-08-29T21:29:12.667Z,990.02
2017-08-29T21:30:12.577Z,989.99
2017-08-29T21:31:12.816Z,990.02
2017-08-29T21:32:12.472Z,990.01
2017-08-29T21:33:12.704Z,989.98
2017-08-29T21:34:12.279Z,989.97
2017-08-29T21:35:12.730Z,989.98
2017-08-29T21:36:11.793Z,989.97
2017-08-29T21:37:17.392Z,989.96
2017-08-29T21:38:11.411Z,990.04
2017-08-29T21:39:13.181Z,989.95
2017-08-29T21:40:11.548Z,989.98
2017-08-29T21:41:12.996Z,989.92
2017-08-29T21:42:11.435Z,990.04
2017-08-29T21:43:13.283Z,989.97
2017-08-29T21:44:11.752Z,990.02
2017-08-29T21:45:12.777Z,989.95
2017-08-29T21:46:11.514Z,989.98
2017-08-29T21:47:12.759Z,990.06
2017-08-29T21:48:12.409Z,989.92
2017-08-29T21:49:12.892Z,989.96
2017-08-29T21:50:12.234Z,989.92
2017-08-29T21:51:12.780Z,989.96